sensor_id;sensor_type;location;lat;lon;timestamp;P1;durP1;ratioP1;P2;durP2;ratioP2
49978;SDS011;35869;50.990;6.962;2023-09-19T00:03:32;2.85;;;1.75;;
49978;SDS011;35869;50.990;6.962;2023-09-19T00:08:35;6.60;;;2.10;;
49978;SDS011;35869;50.990;6.962;2023-09-19T00:13:38;6.43;;;2.03;;
49978;SDS011;35869;50.990;6.962;2023-09-19T00:18:38;5.38;;;2.10;;
49978;SDS011;35869;50.990;6.962;2023-09-19T00:23:38;4.73;;;2.20;;
49978;SDS011;35869;50.990;6.962;2023-09-19T00:28:43;4.90;;;2.13;;
49978;SDS011;35869;50.990;6.962;2023-09-19T00:34:10;4.20;;;1.95;;
49978;SDS011;35869;50.990;6.962;2023-09-19T00:39:10;7.07;;;2.58;;
49978;SDS011;35869;50.990;6.962;2023-09-19T00:44:11;7.50;;;1.90;;
49978;SDS011;35869;50.990;6.962;2023-09-19T00:49:11;6.67;;;2.57;;
49978;SDS011;35869;50.990;6.962;2023-09-19T00:54:12;4.22;;;2.30;;
49978;SDS011;35869;50.990;6.962;2023-09-19T00:59:13;6.13;;;1.77;;
49978;SDS011;35869;50.990;6.962;2023-09-19T01:04:13;7.43;;;2.10;;
49978;SDS011;35869;50.990;6.962;2023-09-19T01:09:13;6.13;;;1.70;;
49978;SDS011;35869;50.990;6.962;2023-09-19T01:14:20;3.67;;;1.87;;
49978;SDS011;35869;50.990;6.962;2023-09-19T01:25:15;8.73;;;2.25;;
49978;SDS011;35869;50.990;6.962;2023-09-19T01:30:35;5.07;;;2.28;;
49978;SDS011;35869;50.990;6.962;2023-09-19T01:35:39;6.88;;;2.20;;
49978;SDS011;35869;50.990;6.962;2023-09-19T01:40:43;6.03;;;2.10;;
49978;SDS011;35869;50.990;6.962;2023-09-19T01:46:04;4.97;;;2.15;;
49978;SDS011;35869;50.990;6.962;2023-09-19T01:51:29;7.55;;;2.60;;
49978;SDS011;35869;50.990;6.962;2023-09-19T01:56:50;6.82;;;2.80;;
49978;SDS011;35869;50.990;6.962;2023-09-19T02:01:58;8.50;;;2.10;;
49978;SDS011;35869;50.990;6.962;2023-09-19T02:12:58;11.85;;;2.50;;
49978;SDS011;35869;50.990;6.962;2023-09-19T02:24:09;3.92;;;2.00;;
49978;SDS011;35869;50.990;6.962;2023-09-19T02:29:12;9.95;;;3.03;;
49978;SDS011;35869;50.990;6.962;2023-09-19T02:34:36;8.35;;;3.22;;
49978;SDS011;35869;50.990;6.962;2023-09-19T02:44:36;7.60;;;2.38;;
49978;SDS011;35869;50.990;6.962;2023-09-19T02:49:37;7.80;;;2.63;;
49978;SDS011;35869;50.990;6.962;2023-09-19T02:54:37;8.10;;;2.80;;
49978;SDS011;35869;50.990;6.962;2023-09-19T02:59:37;9.20;;;2.83;;
49978;SDS011;35869;50.990;6.962;2023-09-19T03:04:38;8.48;;;2.58;;
49978;SDS011;35869;50.990;6.962;2023-09-19T03:09:38;6.17;;;2.60;;
49978;SDS011;35869;50.990;6.962;2023-09-19T03:14:38;12.27;;;2.80;;
49978;SDS011;35869;50.990;6.962;2023-09-19T03:19:38;10.07;;;2.65;;
49978;SDS011;35869;50.990;6.962;2023-09-19T03:24:38;6.30;;;2.73;;
49978;SDS011;35869;50.990;6.962;2023-09-19T03:29:39;6.05;;;2.28;;
49978;SDS011;35869;50.990;6.962;2023-09-19T03:34:39;6.40;;;2.13;;
49978;SDS011;35869;50.990;6.962;2023-09-19T03:44:40;10.27;;;2.70;;
49978;SDS011;35869;50.990;6.962;2023-09-19T03:49:40;4.80;;;2.20;;
49978;SDS011;35869;50.990;6.962;2023-09-19T03:54:40;16.60;;;2.95;;
49978;SDS011;35869;50.990;6.962;2023-09-19T03:59:40;5.80;;;2.33;;
49978;SDS011;35869;50.990;6.962;2023-09-19T04:15:28;8.63;;;2.92;;
49978;SDS011;35869;50.990;6.962;2023-09-19T04:20:28;6.38;;;3.03;;
49978;SDS011;35869;50.990;6.962;2023-09-19T04:25:29;8.23;;;2.50;;
49978;SDS011;35869;50.990;6.962;2023-09-19T04:30:29;6.77;;;2.17;;
49978;SDS011;35869;50.990;6.962;2023-09-19T04:35:29;6.17;;;2.77;;
49978;SDS011;35869;50.990;6.962;2023-09-19T04:45:30;6.07;;;2.72;;
49978;SDS011;35869;50.990;6.962;2023-09-19T04:55:30;9.47;;;2.40;;
49978;SDS011;35869;50.990;6.962;2023-09-19T05:05:34;8.88;;;3.00;;
49978;SDS011;35869;50.990;6.962;2023-09-19T05:10:34;8.18;;;2.80;;
49978;SDS011;35869;50.990;6.962;2023-09-19T05:15:34;7.70;;;2.85;;
49978;SDS011;35869;50.990;6.962;2023-09-19T05:20:34;5.85;;;2.45;;
49978;SDS011;35869;50.990;6.962;2023-09-19T05:30:36;5.70;;;2.42;;
49978;SDS011;35869;50.990;6.962;2023-09-19T05:40:37;8.13;;;2.80;;
49978;SDS011;35869;50.990;6.962;2023-09-19T05:45:37;8.82;;;2.95;;
49978;SDS011;35869;50.990;6.962;2023-09-19T05:55:38;6.70;;;2.38;;
49978;SDS011;35869;50.990;6.962;2023-09-19T06:00:40;7.55;;;2.42;;
49978;SDS011;35869;50.990;6.962;2023-09-19T06:05:41;11.57;;;3.00;;
49978;SDS011;35869;50.990;6.962;2023-09-19T06:10:41;5.53;;;2.63;;
49978;SDS011;35869;50.990;6.962;2023-09-19T06:15:41;6.85;;;3.20;;
49978;SDS011;35869;50.990;6.962;2023-09-19T06:25:42;10.05;;;2.70;;
49978;SDS011;35869;50.990;6.962;2023-09-19T06:30:43;7.88;;;2.30;;
49978;SDS011;35869;50.990;6.962;2023-09-19T06:40:43;6.70;;;2.60;;
49978;SDS011;35869;50.990;6.962;2023-09-19T06:45:43;12.35;;;3.08;;
49978;SDS011;35869;50.990;6.962;2023-09-19T06:50:45;11.25;;;2.97;;
49978;SDS011;35869;50.990;6.962;2023-09-19T06:55:45;5.97;;;2.85;;
49978;SDS011;35869;50.990;6.962;2023-09-19T07:00:45;10.68;;;3.63;;
49978;SDS011;35869;50.990;6.962;2023-09-19T07:10:49;8.18;;;2.88;;
49978;SDS011;35869;50.990;6.962;2023-09-19T07:22:10;10.82;;;2.80;;
49978;SDS011;35869;50.990;6.962;2023-09-19T07:27:19;11.77;;;3.30;;
49978;SDS011;35869;50.990;6.962;2023-09-19T07:32:22;8.77;;;2.63;;
49978;SDS011;35869;50.990;6.962;2023-09-19T07:37:58;11.50;;;2.63;;
49978;SDS011;35869;50.990;6.962;2023-09-19T07:54:17;10.25;;;3.22;;
49978;SDS011;35869;50.990;6.962;2023-09-19T07:59:17;12.38;;;3.00;;
49978;SDS011;35869;50.990;6.962;2023-09-19T08:04:20;11.25;;;3.00;;
49978;SDS011;35869;50.990;6.962;2023-09-19T08:09:21;16.83;;;3.50;;
49978;SDS011;35869;50.990;6.962;2023-09-19T08:14:21;7.97;;;2.88;;
49978;SDS011;35869;50.990;6.962;2023-09-19T08:19:21;8.35;;;2.65;;
49978;SDS011;35869;50.990;6.962;2023-09-19T08:24:21;7.20;;;2.40;;
49978;SDS011;35869;50.990;6.962;2023-09-19T08:29:22;4.37;;;2.73;;
49978;SDS011;35869;50.990;6.962;2023-09-19T08:34:23;8.75;;;3.15;;
49978;SDS011;35869;50.990;6.962;2023-09-19T08:39:25;7.20;;;2.30;;
49978;SDS011;35869;50.990;6.962;2023-09-19T08:44:26;12.93;;;2.72;;
49978;SDS011;35869;50.990;6.962;2023-09-19T08:54:56;7.30;;;1.90;;
49978;SDS011;35869;50.990;6.962;2023-09-19T08:59:59;6.60;;;2.47;;
49978;SDS011;35869;50.990;6.962;2023-09-19T09:05:00;5.53;;;2.22;;
49978;SDS011;35869;50.990;6.962;2023-09-19T09:10:02;5.35;;;2.17;;
49978;SDS011;35869;50.990;6.962;2023-09-19T09:15:10;7.28;;;2.00;;
49978;SDS011;35869;50.990;6.962;2023-09-19T09:20:10;6.83;;;2.10;;
49978;SDS011;35869;50.990;6.962;2023-09-19T09:25:11;9.68;;;2.60;;
49978;SDS011;35869;50.990;6.962;2023-09-19T09:30:15;5.50;;;2.10;;
49978;SDS011;35869;50.990;6.962;2023-09-19T09:35:35;6.18;;;1.80;;
49978;SDS011;35869;50.990;6.962;2023-09-19T09:40:45;6.28;;;2.30;;
49978;SDS011;35869;50.990;6.962;2023-09-19T09:45:47;6.20;;;1.80;;
49978;SDS011;35869;50.990;6.962;2023-09-19T09:51:15;5.38;;;1.77;;
49978;SDS011;35869;50.990;6.962;2023-09-19T09:56:31;5.10;;;1.77;;
49978;SDS011;35869;50.990;6.962;2023-09-19T10:01:45;5.22;;;1.75;;
49978;SDS011;35869;50.990;6.962;2023-09-19T10:06:48;9.90;;;1.75;;
49978;SDS011;35869;50.990;6.962;2023-09-19T10:12:00;4.70;;;1.95;;
49978;SDS011;35869;50.990;6.962;2023-09-19T10:17:11;4.47;;;1.35;;
49978;SDS011;35869;50.990;6.962;2023-09-19T10:22:17;5.53;;;1.52;;
49978;SDS011;35869;50.990;6.962;2023-09-19T10:27:21;3.00;;;1.65;;
49978;SDS011;35869;50.990;6.962;2023-09-19T10:32:22;5.90;;;2.33;;
49978;SDS011;35869;50.990;6.962;2023-09-19T10:37:24;6.13;;;2.10;;
49978;SDS011;35869;50.990;6.962;2023-09-19T10:42:27;4.95;;;1.50;;
49978;SDS011;35869;50.990;6.962;2023-09-19T10:47:28;4.40;;;1.30;;
49978;SDS011;35869;50.990;6.962;2023-09-19T10:52:32;5.93;;;1.50;;
49978;SDS011;35869;50.990;6.962;2023-09-19T10:57:37;4.72;;;1.33;;
49978;SDS011;35869;50.990;6.962;2023-09-19T11:02:38;4.22;;;1.35;;
49978;SDS011;35869;50.990;6.962;2023-09-19T11:07:57;3.83;;;1.63;;
49978;SDS011;35869;50.990;6.962;2023-09-19T11:12:58;4.55;;;1.67;;
49978;SDS011;35869;50.990;6.962;2023-09-19T11:18:06;2.67;;;1.63;;
49978;SDS011;35869;50.990;6.962;2023-09-19T11:23:42;7.43;;;1.80;;
49978;SDS011;35869;50.990;6.962;2023-09-19T11:28:46;8.00;;;1.70;;
49978;SDS011;35869;50.990;6.962;2023-09-19T11:33:46;2.78;;;1.42;;
49978;SDS011;35869;50.990;6.962;2023-09-19T11:43:52;4.72;;;2.13;;
49978;SDS011;35869;50.990;6.962;2023-09-19T11:49:13;4.72;;;1.60;;
49978;SDS011;35869;50.990;6.962;2023-09-19T11:54:15;3.78;;;1.70;;
49978;SDS011;35869;50.990;6.962;2023-09-19T11:59:31;2.63;;;1.67;;
49978;SDS011;35869;50.990;6.962;2023-09-19T12:04:35;4.57;;;1.70;;
49978;SDS011;35869;50.990;6.962;2023-09-19T12:09:42;3.28;;;1.30;;
49978;SDS011;35869;50.990;6.962;2023-09-19T12:14:47;3.85;;;1.73;;
49978;SDS011;35869;50.990;6.962;2023-09-19T12:19:51;8.50;;;1.67;;
49978;SDS011;35869;50.990;6.962;2023-09-19T12:25:03;4.63;;;1.52;;
49978;SDS011;35869;50.990;6.962;2023-09-19T12:30:06;5.55;;;2.13;;
49978;SDS011;35869;50.990;6.962;2023-09-19T12:35:08;4.80;;;1.63;;
49978;SDS011;35869;50.990;6.962;2023-09-19T12:40:26;4.25;;;1.40;;
49978;SDS011;35869;50.990;6.962;2023-09-19T12:45:27;5.35;;;1.88;;
49978;SDS011;35869;50.990;6.962;2023-09-19T12:50:59;3.72;;;1.60;;
49978;SDS011;35869;50.990;6.962;2023-09-19T12:56:02;8.80;;;1.83;;
49978;SDS011;35869;50.990;6.962;2023-09-19T13:01:13;3.85;;;1.30;;
49978;SDS011;35869;50.990;6.962;2023-09-19T13:11:47;3.35;;;1.05;;
49978;SDS011;35869;50.990;6.962;2023-09-19T13:16:58;4.20;;;1.77;;
49978;SDS011;35869;50.990;6.962;2023-09-19T13:22:03;4.65;;;1.27;;
49978;SDS011;35869;50.990;6.962;2023-09-19T13:27:21;5.70;;;1.48;;
49978;SDS011;35869;50.990;6.962;2023-09-19T13:32:32;4.45;;;1.23;;
49978;SDS011;35869;50.990;6.962;2023-09-19T13:37:36;2.65;;;1.00;;
49978;SDS011;35869;50.990;6.962;2023-09-19T13:42:38;4.18;;;1.23;;
49978;SDS011;35869;50.990;6.962;2023-09-19T13:47:39;4.28;;;1.10;;
49978;SDS011;35869;50.990;6.962;2023-09-19T13:58:00;4.00;;;1.37;;
49978;SDS011;35869;50.990;6.962;2023-09-19T14:03:10;4.25;;;1.17;;
49978;SDS011;35869;50.990;6.962;2023-09-19T14:08:10;5.40;;;1.17;;
49978;SDS011;35869;50.990;6.962;2023-09-19T14:13:11;3.33;;;0.85;;
49978;SDS011;35869;50.990;6.962;2023-09-19T14:18:11;3.80;;;0.97;;
49978;SDS011;35869;50.990;6.962;2023-09-19T14:23:15;3.20;;;1.13;;
49978;SDS011;35869;50.990;6.962;2023-09-19T14:28:15;2.28;;;0.73;;
49978;SDS011;35869;50.990;6.962;2023-09-19T14:33:21;3.90;;;1.40;;
49978;SDS011;35869;50.990;6.962;2023-09-19T14:38:22;3.42;;;0.88;;
49978;SDS011;35869;50.990;6.962;2023-09-19T14:43:23;0.90;;;0.63;;
49978;SDS011;35869;50.990;6.962;2023-09-19T14:48:23;3.08;;;0.98;;
49978;SDS011;35869;50.990;6.962;2023-09-19T14:53:38;2.50;;;1.05;;
49978;SDS011;35869;50.990;6.962;2023-09-19T14:58:38;3.58;;;0.82;;
49978;SDS011;35869;50.990;6.962;2023-09-19T15:03:42;2.97;;;0.90;;
49978;SDS011;35869;50.990;6.962;2023-09-19T15:08:43;2.08;;;0.88;;
49978;SDS011;35869;50.990;6.962;2023-09-19T15:13:50;1.15;;;0.60;;
49978;SDS011;35869;50.990;6.962;2023-09-19T15:18:52;1.35;;;0.77;;
49978;SDS011;35869;50.990;6.962;2023-09-19T15:23:52;1.52;;;0.75;;
49978;SDS011;35869;50.990;6.962;2023-09-19T15:28:53;2.10;;;0.95;;
49978;SDS011;35869;50.990;6.962;2023-09-19T15:33:56;2.80;;;0.85;;
49978;SDS011;35869;50.990;6.962;2023-09-19T15:39:00;1.00;;;0.60;;
49978;SDS011;35869;50.990;6.962;2023-09-19T15:44:14;2.90;;;1.23;;
49978;SDS011;35869;50.990;6.962;2023-09-19T15:49:15;3.40;;;0.65;;
49978;SDS011;35869;50.990;6.962;2023-09-19T15:54:16;1.50;;;0.80;;
49978;SDS011;35869;50.990;6.962;2023-09-19T15:59:19;5.18;;;0.70;;
49978;SDS011;35869;50.990;6.962;2023-09-19T16:04:20;3.05;;;0.70;;
49978;SDS011;35869;50.990;6.962;2023-09-19T16:09:25;2.88;;;1.15;;
49978;SDS011;35869;50.990;6.962;2023-09-19T16:14:26;1.52;;;0.82;;
49978;SDS011;35869;50.990;6.962;2023-09-19T16:19:26;2.40;;;0.80;;
49978;SDS011;35869;50.990;6.962;2023-09-19T16:24:26;3.28;;;1.25;;
49978;SDS011;35869;50.990;6.962;2023-09-19T16:29:29;2.43;;;1.07;;
49978;SDS011;35869;50.990;6.962;2023-09-19T16:34:29;3.13;;;0.82;;
49978;SDS011;35869;50.990;6.962;2023-09-19T16:39:30;2.53;;;0.90;;
49978;SDS011;35869;50.990;6.962;2023-09-19T16:44:32;2.37;;;0.90;;
49978;SDS011;35869;50.990;6.962;2023-09-19T16:49:33;2.05;;;0.73;;
49978;SDS011;35869;50.990;6.962;2023-09-19T16:54:33;1.50;;;0.98;;
49978;SDS011;35869;50.990;6.962;2023-09-19T16:59:34;4.05;;;1.00;;
49978;SDS011;35869;50.990;6.962;2023-09-19T17:04:34;1.70;;;0.70;;
49978;SDS011;35869;50.990;6.962;2023-09-19T17:09:34;1.92;;;0.73;;
49978;SDS011;35869;50.990;6.962;2023-09-19T17:14:35;2.40;;;1.20;;
49978;SDS011;35869;50.990;6.962;2023-09-19T17:19:35;1.33;;;0.73;;
49978;SDS011;35869;50.990;6.962;2023-09-19T17:24:35;4.07;;;1.42;;
49978;SDS011;35869;50.990;6.962;2023-09-19T17:29:36;2.75;;;0.88;;
49978;SDS011;35869;50.990;6.962;2023-09-19T17:34:36;5.15;;;1.50;;
49978;SDS011;35869;50.990;6.962;2023-09-19T17:39:37;3.95;;;1.30;;
49978;SDS011;35869;50.990;6.962;2023-09-19T17:44:38;2.97;;;1.07;;
49978;SDS011;35869;50.990;6.962;2023-09-19T17:49:39;1.48;;;0.98;;
49978;SDS011;35869;50.990;6.962;2023-09-19T17:54:39;1.20;;;0.90;;
49978;SDS011;35869;50.990;6.962;2023-09-19T17:59:39;3.83;;;1.20;;
49978;SDS011;35869;50.990;6.962;2023-09-19T18:04:40;3.08;;;1.00;;
49978;SDS011;35869;50.990;6.962;2023-09-19T18:09:40;2.55;;;1.10;;
49978;SDS011;35869;50.990;6.962;2023-09-19T18:14:40;4.67;;;1.20;;
49978;SDS011;35869;50.990;6.962;2023-09-19T18:19:41;4.18;;;1.50;;
49978;SDS011;35869;50.990;6.962;2023-09-19T18:24:46;6.35;;;1.50;;
49978;SDS011;35869;50.990;6.962;2023-09-19T18:29:47;2.22;;;1.35;;
49978;SDS011;35869;50.990;6.962;2023-09-19T18:34:47;2.73;;;1.30;;
49978;SDS011;35869;50.990;6.962;2023-09-19T18:39:47;2.70;;;1.03;;
49978;SDS011;35869;50.990;6.962;2023-09-19T18:44:48;3.80;;;1.10;;
49978;SDS011;35869;50.990;6.962;2023-09-19T18:49:50;3.80;;;1.60;;
49978;SDS011;35869;50.990;6.962;2023-09-19T18:54:57;2.78;;;1.40;;
49978;SDS011;35869;50.990;6.962;2023-09-19T18:59:57;1.63;;;1.10;;
49978;SDS011;35869;50.990;6.962;2023-09-19T19:04:58;2.23;;;0.90;;
49978;SDS011;35869;50.990;6.962;2023-09-19T19:10:02;2.38;;;1.00;;
49978;SDS011;35869;50.990;6.962;2023-09-19T19:15:03;3.55;;;1.48;;
49978;SDS011;35869;50.990;6.962;2023-09-19T19:20:03;8.32;;;1.60;;
49978;SDS011;35869;50.990;6.962;2023-09-19T19:25:04;1.73;;;1.20;;
49978;SDS011;35869;50.990;6.962;2023-09-19T19:30:05;2.28;;;1.23;;
49978;SDS011;35869;50.990;6.962;2023-09-19T19:35:05;4.28;;;1.20;;
49978;SDS011;35869;50.990;6.962;2023-09-19T19:40:15;3.20;;;1.00;;
49978;SDS011;35869;50.990;6.962;2023-09-19T19:45:16;2.25;;;1.27;;
49978;SDS011;35869;50.990;6.962;2023-09-19T19:50:18;3.83;;;1.50;;
49978;SDS011;35869;50.990;6.962;2023-09-19T19:55:18;2.63;;;1.23;;
49978;SDS011;35869;50.990;6.962;2023-09-19T20:00:18;4.43;;;1.10;;
49978;SDS011;35869;50.990;6.962;2023-09-19T20:05:19;4.10;;;1.10;;
49978;SDS011;35869;50.990;6.962;2023-09-19T20:10:19;4.82;;;1.73;;
49978;SDS011;35869;50.990;6.962;2023-09-19T20:15:22;5.75;;;1.10;;
49978;SDS011;35869;50.990;6.962;2023-09-19T20:20:22;2.97;;;1.38;;
49978;SDS011;35869;50.990;6.962;2023-09-19T20:25:22;4.10;;;1.40;;
49978;SDS011;35869;50.990;6.962;2023-09-19T20:30:23;6.30;;;1.80;;
49978;SDS011;35869;50.990;6.962;2023-09-19T20:35:27;4.80;;;1.58;;
49978;SDS011;35869;50.990;6.962;2023-09-19T20:40:28;4.78;;;1.45;;
49978;SDS011;35869;50.990;6.962;2023-09-19T20:45:30;3.03;;;1.58;;
49978;SDS011;35869;50.990;6.962;2023-09-19T20:50:30;4.25;;;1.40;;
49978;SDS011;35869;50.990;6.962;2023-09-19T20:55:30;3.80;;;1.38;;
49978;SDS011;35869;50.990;6.962;2023-09-19T21:00:31;3.47;;;1.80;;
49978;SDS011;35869;50.990;6.962;2023-09-19T21:05:31;3.05;;;1.40;;
49978;SDS011;35869;50.990;6.962;2023-09-19T21:10:32;2.50;;;1.60;;
49978;SDS011;35869;50.990;6.962;2023-09-19T21:15:32;5.28;;;1.77;;
49978;SDS011;35869;50.990;6.962;2023-09-19T21:20:32;2.67;;;1.50;;
49978;SDS011;35869;50.990;6.962;2023-09-19T21:25:33;2.90;;;1.55;;
49978;SDS011;35869;50.990;6.962;2023-09-19T21:30:33;7.30;;;1.42;;
49978;SDS011;35869;50.990;6.962;2023-09-19T21:35:34;3.25;;;1.20;;
49978;SDS011;35869;50.990;6.962;2023-09-19T21:40:43;3.45;;;1.45;;
49978;SDS011;35869;50.990;6.962;2023-09-19T21:45:44;4.60;;;1.67;;
49978;SDS011;35869;50.990;6.962;2023-09-19T21:50:52;5.35;;;1.40;;
49978;SDS011;35869;50.990;6.962;2023-09-19T21:55:59;3.05;;;1.75;;
49978;SDS011;35869;50.990;6.962;2023-09-19T22:01:01;5.47;;;1.63;;
49978;SDS011;35869;50.990;6.962;2023-09-19T22:06:05;3.15;;;1.70;;
49978;SDS011;35869;50.990;6.962;2023-09-19T22:11:09;4.00;;;1.40;;
49978;SDS011;35869;50.990;6.962;2023-09-19T22:16:13;2.13;;;1.30;;
49978;SDS011;35869;50.990;6.962;2023-09-19T22:21:15;3.80;;;1.38;;
49978;SDS011;35869;50.990;6.962;2023-09-19T22:26:16;2.58;;;1.30;;
49978;SDS011;35869;50.990;6.962;2023-09-19T22:31:21;2.43;;;1.50;;
49978;SDS011;35869;50.990;6.962;2023-09-19T22:36:27;4.63;;;1.58;;
49978;SDS011;35869;50.990;6.962;2023-09-19T22:41:27;4.75;;;2.00;;
49978;SDS011;35869;50.990;6.962;2023-09-19T22:46:28;4.40;;;1.70;;
49978;SDS011;35869;50.990;6.962;2023-09-19T22:51:28;3.03;;;1.80;;
49978;SDS011;35869;50.990;6.962;2023-09-19T22:56:28;5.68;;;1.85;;
49978;SDS011;35869;50.990;6.962;2023-09-19T23:01:29;8.03;;;1.70;;
49978;SDS011;35869;50.990;6.962;2023-09-19T23:06:29;3.58;;;1.75;;
49978;SDS011;35869;50.990;6.962;2023-09-19T23:11:35;4.43;;;1.83;;
49978;SDS011;35869;50.990;6.962;2023-09-19T23:16:35;3.17;;;1.60;;
49978;SDS011;35869;50.990;6.962;2023-09-19T23:21:35;5.50;;;1.73;;
49978;SDS011;35869;50.990;6.962;2023-09-19T23:26:36;7.10;;;1.60;;
49978;SDS011;35869;50.990;6.962;2023-09-19T23:31:36;6.25;;;1.90;;
49978;SDS011;35869;50.990;6.962;2023-09-19T23:36:36;5.53;;;1.80;;
49978;SDS011;35869;50.990;6.962;2023-09-19T23:41:36;6.05;;;2.15;;
49978;SDS011;35869;50.990;6.962;2023-09-19T23:46:37;2.75;;;2.03;;
49978;SDS011;35869;50.990;6.962;2023-09-19T23:51:37;5.07;;;1.77;;
49978;SDS011;35869;50.990;6.962;2023-09-19T23:56:38;5.05;;;1.67;;
